Language selection

Features

My Weather Profile Weather Topics  | 

Northern Lake Huron: Past 24 Hour Conditions

 

Oshawa Executive Airport

11:00 AM EDT 18 August 2019
Disclaimer

This table is a summary of hourly weather conditions for the past 24 hours.
Please note that these observations might not always be representative of weather conditions over their associated marine area.

Date / Time
(EDT)
Wind(knots) Conditions Visibility(km) Pressure(kPa) Air tempC) Relative humidity(%) Dew pointC) Humidex
18 August 2019
11:00 S 6 Cloudy 16 101.4 22 89 20 30
10:00 SE 5 Mist 5 101.4 21 99 21 30
9:00 E 4 Mist 2 101.4 20 100 20 28
8:00 NE 4 Light Rain 5 101.4 19 100 19 *
7:00 S 4 Cloudy 11 101.4 18 100 18 *
6:00 NE 2 Mist 10 101.4 17 100 17 *
5:00 NNW 2 Partly Cloudy 13 101.4 17 100 17 *
4:00 NNE 3 Mist 8 101.4 16 100 16 *
3:00 NNW 2 Fog 0.4 101.4 18 100 18 *
2:00 NNW 2 Cloudy 11 101.4 19 100 19 *
1:00 NE 2 Mist 3 101.5 18 100 18 *
0:00 calm Fog 0.6 101.4 19 100 19 *
17 August 2019
23:00 calm Clear 13 101.4 19 98 18 *
22:00 E 2 Clear 11 101.3 20 99 20 28
21:00 ESE 2 Clear 15 101.3 22 91 20 29
20:00 S 2 Sunny 16 101.2 24 75 19 30
19:00 SE 2 Sunny 16 101.2 24 80 20 32
18:00 SE 4 Sunny 16 101.2 25 81 21 33
17:00 SE 6 Sunny 16 101.2 25 81 21 33
16:00 SE 5 Partly Cloudy 16 101.3 24 84 21 32
15:00 ESE 5 Mostly Cloudy 16 101.3 22 89 20 29
14:00 E 5 Cloudy 16 101.4 21 92 20 29
13:00 ESE 6 Cloudy 16 101.4 20 96 20 27
12:00 ESE 8 Cloudy 16 101.3 21 95 20 28
11:00 SE 6 Light Rain 13 101.4 20 99 20 27

Zoom-in to make a selection

Map of Great Lakes - Lake Huron marine weather areas N Huron - 45003 W Erie - 45005 S Huron - 45008 Lake Ontario - 45012 Port Stanley - 45132 Prince Edward Point - 45135 Georgian Bay - 45137 Grimsby - 45139 Port Colborne - 45142 South Georgian Bay - 45143 Lake St Clair - 45147 South Lake Huron - 45149 Lake Simcoe - 45151 Lake Nipissing - 45152 North Channel - 45154 Ajax - 45159 Sault Ste. Marie Airport Killarney Greater Sudbury Airport North Bay Airport Gore Bay-Manitoulin Airport Great Duck Island Brockville Grenadier Island Kingston Airport Collingwood Lagoon City Muskoka Airport Parry Sound Harbour Lake Simcoe Regional Airport Wiarton Airport Western Islands Cove Island Goderich Sarnia Chris Hadfield Airport Tobermory Harrow AAFC Long Point Port Weller St. Catharines / Niagara District Airport Southeast Shoal Vineland Station Welland-Pelham Windsor Airport Port Colborne Erieau Point Pelee Burlington Lift Bridge Cobourg Hamilton Munro Int'l Airport Oshawa Executive Airport Point Petre Toronto City Centre Airport CFB Trenton Peterborough Municipal Airport
Legend:
buoy Buoy
land station Land Station

Great Lakes - Lake Huron Area

Another Region

What we are doing

Date modified: